Time,TemperatureF,DewpointF,PressureIn,WindDirection,WindDirectionDegrees,WindSpeedMPH,WindSpeedGustMPH,Humidity,HourlyPrecipIn,Conditions,Clouds,dailyrainin,SolarRadiationWatts/m^2,SoftwareType,DateUTC
2013-01-14 00:06:00,65.1,64.0,30.11,East,96,0.0,0.0,96,0.00,,,0.00,0,weatherlink.com 1.10,2013-01-14 05:06:00,
2013-01-14 00:21:00,65.0,64.0,30.11,East,96,0.0,0.0,97,0.00,,,0.00,0,weatherlink.com 1.10,2013-01-14 05:21:00,
2013-01-14 00:36:00,65.6,65.0,30.11,East,96,0.0,1.0,97,0.00,,,0.00,0,weatherlink.com 1.10,2013-01-14 05:36:00,
2013-01-14 00:51:00,65.6,65.0,30.11,East,96,0.0,0.0,96,0.00,,,0.00,0,weatherlink.com 1.10,2013-01-14 05:51:00,
2013-01-14 01:06:00,65.7,65.0,30.11,East,96,0.0,1.0,96,0.00,,,0.00,0,weatherlink.com 1.10,2013-01-14 06:06:00,
2013-01-14 01:21:00,65.3,65.0,30.11,East,96,1.0,1.0,97,0.00,,,0.00,0,weatherlink.com 1.10,2013-01-14 06:21:00,
2013-01-14 01:36:00,65.0,64.0,30.12,East,96,0.0,1.0,97,0.00,,,0.00,0,weatherlink.com 1.10,2013-01-14 06:36:00,
2013-01-14 01:51:00,65.4,65.0,30.12,East,96,1.0,1.0,97,0.00,,,0.00,0,weatherlink.com 1.10,2013-01-14 06:51:00,
2013-01-14 02:06:00,65.2,64.0,30.12,East,96,0.0,1.0,97,0.00,,,0.00,0,weatherlink.com 1.10,2013-01-14 07:06:00,
2013-01-14 02:21:00,65.0,64.0,30.12,East,96,0.0,1.0,97,0.00,,,0.00,0,weatherlink.com 1.10,2013-01-14 07:21:00,
2013-01-14 02:36:00,66.1,65.0,30.13,East,96,0.0,1.0,97,0.00,,,0.00,0,weatherlink.com 1.10,2013-01-14 07:36:00,
2013-01-14 02:51:00,66.5,66.0,30.13,East,96,0.0,1.0,97,0.00,,,0.00,0,weatherlink.com 1.10,2013-01-14 07:51:00,
2013-01-14 03:21:00,67.5,66.0,30.12,SE,144,0.0,3.0,95,0.00,,,0.00,0,weatherlink.com 1.10,2013-01-14 08:21:00,
2013-01-14 03:36:00,68.1,66.0,30.12,SE,131,1.0,4.0,93,0.00,,,0.00,0,weatherlink.com 1.10,2013-01-14 08:36:00,
2013-01-14 04:06:00,67.4,65.0,30.11,SE,136,1.0,5.0,92,0.00,,,0.00,0,weatherlink.com 1.10,2013-01-14 09:06:00,
2013-01-14 04:21:00,67.2,65.0,30.11,ESE,121,0.0,4.0,91,0.00,,,0.00,0,weatherlink.com 1.10,2013-01-14 09:21:00,
2013-01-14 04:36:00,66.6,64.0,30.11,SE,129,4.0,4.0,92,0.00,,,0.00,0,weatherlink.com 1.10,2013-01-14 09:36:00,
2013-01-14 04:51:00,66.5,64.0,30.10,East,101,2.0,5.0,92,0.00,,,0.00,0,weatherlink.com 1.10,2013-01-14 09:51:00,
2013-01-14 05:06:00,66.3,64.0,30.10,ESE,120,1.0,5.0,92,0.00,,,0.00,0,weatherlink.com 1.10,2013-01-14 10:06:00,
2013-01-14 05:21:00,66.0,64.0,30.10,ESE,111,1.0,6.0,92,0.00,,,0.00,0,weatherlink.com 1.10,2013-01-14 10:21:00,
2013-01-14 05:36:00,65.5,63.0,30.10,East,91,1.0,4.0,92,0.00,,,0.00,0,weatherlink.com 1.10,2013-01-14 10:36:00,
2013-01-14 05:51:00,64.5,63.0,30.10,East,89,1.0,2.0,93,0.00,,,0.00,0,weatherlink.com 1.10,2013-01-14 10:51:00,
2013-01-14 06:06:00,63.9,62.0,30.11,East,89,0.0,2.0,94,0.00,,,0.00,0,weatherlink.com 1.10,2013-01-14 11:06:00,
2013-01-14 06:21:00,63.4,62.0,30.12,East,89,1.0,2.0,95,0.00,,,0.00,0,weatherlink.com 1.10,2013-01-14 11:21:00,
2013-01-14 06:36:00,62.9,62.0,30.12,East,88,0.0,2.0,96,0.00,,,0.00,0,weatherlink.com 1.10,2013-01-14 11:36:00,
2013-01-14 06:51:00,62.1,61.0,30.12,East,88,0.0,1.0,96,0.00,,,0.00,0,weatherlink.com 1.10,2013-01-14 11:51:00,
2013-01-14 07:06:00,61.2,60.0,30.13,East,88,0.0,0.0,96,0.00,,,0.00,0,weatherlink.com 1.10,2013-01-14 12:06:00,
2013-01-14 07:22:00,60.7,60.0,30.13,East,88,0.0,0.0,97,0.00,,,0.00,0,weatherlink.com 1.10,2013-01-14 12:22:00,
2013-01-14 07:37:00,60.9,60.0,30.13,East,88,0.0,0.0,97,0.00,,,0.00,14,weatherlink.com 1.10,2013-01-14 12:37:00,
2013-01-14 07:52:00,62.7,62.0,30.14,East,88,1.0,3.0,98,0.00,,,0.00,21,weatherlink.com 1.10,2013-01-14 12:52:00,
2013-01-14 08:07:00,63.6,63.0,30.14,East,98,1.0,5.0,98,0.00,,,0.00,74,weatherlink.com 1.10,2013-01-14 13:07:00,
2013-01-14 08:22:00,64.3,64.0,30.15,East,93,2.0,5.0,97,0.00,,,0.00,84,weatherlink.com 1.10,2013-01-14 13:22:00,
2013-01-14 08:37:00,65.5,64.0,30.16,East,79,2.0,3.0,96,0.00,,,0.00,163,weatherlink.com 1.10,2013-01-14 13:37:00,
2013-01-14 08:52:00,66.5,65.0,30.16,East,88,1.0,3.0,95,0.00,,,0.00,206,weatherlink.com 1.10,2013-01-14 13:52:00,
2013-01-14 09:07:00,67.9,66.0,30.16,ESE,115,1.0,5.0,93,0.00,,,0.00,243,weatherlink.com 1.10,2013-01-14 14:07:00,
2013-01-14 09:22:00,69.3,66.0,30.16,ESE,118,5.0,7.0,89,0.00,,,0.00,329,weatherlink.com 1.10,2013-01-14 14:22:00,
2013-01-14 09:37:00,71.2,67.0,30.16,ESE,109,4.0,8.0,85,0.00,,,0.00,308,weatherlink.com 1.10,2013-01-14 14:37:00,
2013-01-14 09:52:00,71.6,66.0,30.17,ENE,74,3.0,7.0,82,0.00,,,0.00,167,weatherlink.com 1.10,2013-01-14 14:52:00,
2013-01-14 10:07:00,73.3,66.0,30.17,ENE,68,3.0,7.0,79,0.00,,,0.00,489,weatherlink.com 1.10,2013-01-14 15:07:00,
2013-01-14 10:22:00,74.6,65.0,30.17,East,86,5.0,10.0,73,0.00,,,0.00,316,weatherlink.com 1.10,2013-01-14 15:22:00,
2013-01-14 10:37:00,75.2,65.0,30.17,ESE,114,2.0,10.0,70,0.00,,,0.00,308,weatherlink.com 1.10,2013-01-14 15:37:00,
2013-01-14 10:52:00,76.2,65.0,30.16,ESE,111,3.0,10.0,69,0.00,,,0.00,325,weatherlink.com 1.10,2013-01-14 15:52:00,
2013-01-14 11:07:00,77.6,65.0,30.16,SSE,149,4.0,10.0,66,0.00,,,0.00,664,weatherlink.com 1.10,2013-01-14 16:07:00,
2013-01-14 11:22:00,76.6,65.0,30.16,South,170,3.0,9.0,67,0.00,,,0.00,401,weatherlink.com 1.10,2013-01-14 16:22:00,
2013-01-14 11:37:00,77.8,65.0,30.15,SSE,147,6.0,11.0,64,0.00,,,0.00,619,weatherlink.com 1.10,2013-01-14 16:37:00,
2013-01-14 11:52:00,80.4,65.0,30.15,South,184,2.0,11.0,60,0.00,,,0.00,714,weatherlink.com 1.10,2013-01-14 16:52:00,
2013-01-14 12:07:00,80.2,63.0,30.14,SSE,163,3.0,10.0,57,0.00,,,0.00,696,weatherlink.com 1.10,2013-01-14 17:07:00,
2013-01-14 12:23:00,81.3,64.0,30.14,South,169,1.0,10.0,55,0.00,,,0.00,700,weatherlink.com 1.10,2013-01-14 17:23:00,
2013-01-14 12:38:00,80.6,62.0,30.14,SE,144,5.0,8.0,53,0.00,,,0.00,751,weatherlink.com 1.10,2013-01-14 17:38:00,
2013-01-14 12:53:00,83.6,65.0,30.13,SSW,211,6.0,7.0,53,0.00,,,0.00,779,weatherlink.com 1.10,2013-01-14 17:53:00,
2013-01-14 13:08:00,83.5,65.0,30.12,SW,216,5.0,10.0,53,0.00,,,0.00,745,weatherlink.com 1.10,2013-01-14 18:08:00,
2013-01-14 13:23:00,82.8,64.0,30.11,SSW,211,0.0,9.0,53,0.00,,,0.00,684,weatherlink.com 1.10,2013-01-14 18:23:00,
2013-01-14 13:38:00,83.6,64.0,30.11,SE,126,1.0,8.0,52,0.00,,,0.00,670,weatherlink.com 1.10,2013-01-14 18:38:00,
2013-01-14 13:53:00,82.6,63.0,30.11,SW,216,7.0,9.0,52,0.00,,,0.00,652,weatherlink.com 1.10,2013-01-14 18:53:00,
2013-01-14 14:08:00,83.2,64.0,30.11,SW,223,5.0,6.0,52,0.00,,,0.00,628,weatherlink.com 1.10,2013-01-14 19:08:00,
2013-01-14 14:23:00,82.8,63.0,30.11,SSW,207,2.0,11.0,51,0.00,,,0.00,608,weatherlink.com 1.10,2013-01-14 19:23:00,
2013-01-14 14:38:00,81.0,62.0,30.11,SSW,194,5.0,9.0,52,0.00,,,0.00,582,weatherlink.com 1.10,2013-01-14 19:38:00,
2013-01-14 14:53:00,81.4,62.0,30.10,South,176,2.0,9.0,52,0.00,,,0.00,554,weatherlink.com 1.10,2013-01-14 19:53:00,
2013-01-14 15:08:00,81.5,62.0,30.11,SSE,150,2.0,7.0,51,0.00,,,0.00,520,weatherlink.com 1.10,2013-01-14 20:08:00,
2013-01-14 15:23:00,81.2,62.0,30.11,SSW,208,3.0,9.0,52,0.00,,,0.00,482,weatherlink.com 1.10,2013-01-14 20:23:00,
2013-01-14 15:38:00,80.7,61.0,30.11,SSW,209,1.0,9.0,52,0.00,,,0.00,443,weatherlink.com 1.10,2013-01-14 20:38:00,
2013-01-14 16:08:00,80.2,61.0,30.11,SSW,211,3.0,7.0,53,0.00,,,0.00,350,weatherlink.com 1.10,2013-01-14 21:08:00,
2013-01-14 16:23:00,78.9,61.0,30.12,SSW,205,2.0,8.0,55,0.00,,,0.00,301,weatherlink.com 1.10,2013-01-14 21:23:00,
2013-01-14 16:38:00,78.1,61.0,30.12,SSW,211,1.0,7.0,56,0.00,,,0.00,251,weatherlink.com 1.10,2013-01-14 21:38:00,
2013-01-14 16:53:00,76.9,61.0,30.12,SSW,206,4.0,7.0,58,0.00,,,0.00,199,weatherlink.com 1.10,2013-01-14 21:53:00,
2013-01-14 17:08:00,75.9,60.0,30.12,South,184,1.0,6.0,59,0.00,,,0.00,146,weatherlink.com 1.10,2013-01-14 22:08:00,
2013-01-14 17:23:00,74.9,60.0,30.12,South,176,4.0,5.0,61,0.00,,,0.00,88,weatherlink.com 1.10,2013-01-14 22:23:00,
2013-01-14 17:38:00,73.7,60.0,30.12,South,189,1.0,3.0,62,0.00,,,0.00,21,weatherlink.com 1.10,2013-01-14 22:38:00,
2013-01-14 17:53:00,72.7,60.0,30.12,SSW,213,1.0,3.0,64,0.00,,,0.00,9,weatherlink.com 1.10,2013-01-14 22:53:00,
2013-01-14 18:23:00,69.8,60.0,30.13,SSW,213,0.0,1.0,71,0.00,,,0.00,0,weatherlink.com 1.10,2013-01-14 23:23:00,
2013-01-14 18:38:00,69.2,60.0,30.13,SSW,213,0.0,1.0,73,0.00,,,0.00,0,weatherlink.com 1.10,2013-01-14 23:38:00,
2013-01-14 18:53:00,68.5,60.0,30.13,SSW,213,0.0,1.0,74,0.00,,,0.00,0,weatherlink.com 1.10,2013-01-14 23:53:00,
2013-01-14 19:08:00,68.5,60.0,30.13,SSW,213,0.0,1.0,75,0.00,,,0.00,0,weatherlink.com 1.10,2013-01-15 00:08:00,
2013-01-14 19:23:00,68.6,61.0,30.13,SE,130,0.0,1.0,77,0.00,,,0.00,0,weatherlink.com 1.10,2013-01-15 00:23:00,
2013-01-14 19:38:00,67.2,61.0,30.13,SE,130,0.0,0.0,80,0.00,,,0.00,0,weatherlink.com 1.10,2013-01-15 00:38:00,
2013-01-14 19:53:00,65.5,60.0,30.13,SE,130,0.0,0.0,82,0.00,,,0.00,0,weatherlink.com 1.10,2013-01-15 00:53:00,
2013-01-14 20:08:00,65.2,60.0,30.13,SE,130,0.0,0.0,84,0.00,,,0.00,0,weatherlink.com 1.10,2013-01-15 01:08:00,
2013-01-14 20:38:00,63.8,60.0,30.13,SE,130,0.0,0.0,87,0.00,,,0.00,0,weatherlink.com 1.10,2013-01-15 01:38:00,
2013-01-14 20:54:00,63.3,60.0,30.13,SE,130,0.0,0.0,88,0.00,,,0.00,0,weatherlink.com 1.10,2013-01-15 01:54:00,
2013-01-14 21:08:00,63.2,60.0,30.13,SE,130,0.0,0.0,89,0.00,,,0.00,0,weatherlink.com 1.10,2013-01-15 02:08:00,
2013-01-14 21:23:00,62.7,60.0,30.13,SE,130,0.0,0.0,90,0.00,,,0.00,0,weatherlink.com 1.10,2013-01-15 02:23:00,
2013-01-14 21:38:00,62.5,60.0,30.13,SE,130,0.0,0.0,90,0.00,,,0.00,0,weatherlink.com 1.10,2013-01-15 02:38:00,
2013-01-14 21:53:00,62.2,60.0,30.14,SE,130,0.0,0.0,92,0.00,,,0.00,0,weatherlink.com 1.10,2013-01-15 02:53:00,
2013-01-14 22:08:00,61.8,60.0,30.14,SE,130,0.0,0.0,92,0.00,,,0.00,0,weatherlink.com 1.10,2013-01-15 03:08:00,
2013-01-14 22:23:00,61.6,60.0,30.13,SE,130,0.0,0.0,93,0.00,,,0.00,0,weatherlink.com 1.10,2013-01-15 03:23:00,
2013-01-14 22:38:00,61.5,60.0,30.13,SE,130,0.0,0.0,93,0.00,,,0.00,0,weatherlink.com 1.10,2013-01-15 03:38:00,
2013-01-14 22:53:00,61.3,60.0,30.13,SE,130,0.0,0.0,94,0.00,,,0.00,0,weatherlink.com 1.10,2013-01-15 03:53:00,
2013-01-14 23:23:00,60.9,60.0,30.13,SE,130,0.0,0.0,95,0.00,,,0.00,0,weatherlink.com 1.10,2013-01-15 04:23:00,
2013-01-14 23:38:00,60.7,59.0,30.13,SE,130,0.0,0.0,95,0.00,,,0.00,0,weatherlink.com 1.10,2013-01-15 04:38:00,
2013-01-14 23:53:00,60.7,60.0,30.13,SE,130,0.0,0.0,96,0.00,,,0.00,0,weatherlink.com 1.10,2013-01-15 04:53:00,